Bow Clipper — LAUU4 — position and weather

sailwx.info

Track history (hours):
 
Tides and Currents Weather Stations Pressure Air Temp Water Temp Dewpoint Dewpoint Depression Visibility Wind Speed Wind Dir Waves Ship Positions

Bow Clipper

Last reported at 2016-Apr-28 16:29 UTC. Time now 2016-Apr-28 19:57 UTC.
Position N 29°58' W 090°16'.

Length 188 m; draft 6.1 m.

Type: Ship (hazmat cat B). MMSI: 258946991.

Date/timePositionNaut miles runAvg speedWind from/ knotsBaromVisibWave heightAir tempDewpointWater temp
2016-Apr-28 16:29N 29°58' W 090°16'5 0.2
2016-Apr-27 13:29N 29°55' W 090°12'3 3.5
2016-Apr-27 12:33N 29°57' W 090°09'5 4.6
2016-Apr-27 11:33N 29°57' W 090°03'8 8.1
2016-Apr-27 10:33N 29°54' W 089°55'1 0.6
2016-Apr-27 08:11N 29°53' W 089°54'0 0.0
2016-Apr-27 06:29N 29°53' W 089°54'0 0.0
2016-Apr-27 05:29N 29°53' W 089°54'0 0.0
2016-Apr-27 04:14N 29°53' W 089°54'0 0.0
2016-Apr-27 03:33N 29°53' W 089°54'6 6.3
2016-Apr-27 02:33N 29°49' W 090°00'  
2016-Apr-24 08:33N 25°49' W 079°34'1211.8
2016-Apr-24 07:33N 26°01' W 079°32'1211.7
2016-Apr-24 06:33N 26°13' W 079°30'  
Track history (hours):
 
Tides and Currents Weather Stations Pressure Air Temp Water Temp Dewpoint Dewpoint Depression Visibility Wind Speed Wind Dir Waves Ship Positions

Bow Clipper

Last reported at 2016-Apr-28 16:29 UTC. Time now 2016-Apr-28 19:57 UTC.
Position N 29°58' W 090°16'.

Length 188 m; draft 6.1 m.

Type: Ship (hazmat cat B). MMSI: 258946991.

Date/timePositionNaut miles runAvg speedWind from/ knotsBaromVisibWave heightAir tempDewpointWater temp
2016-Apr-28 16:29N 29°58' W 090°16'5 0.2
2016-Apr-27 13:29N 29°55' W 090°12'3 3.5
2016-Apr-27 12:33N 29°57' W 090°09'5 4.6
2016-Apr-27 11:33N 29°57' W 090°03'8 8.1
2016-Apr-27 10:33N 29°54' W 089°55'1 0.6
2016-Apr-27 08:11N 29°53' W 089°54'0 0.0
2016-Apr-27 06:29N 29°53' W 089°54'0 0.0
2016-Apr-27 05:29N 29°53' W 089°54'0 0.0
2016-Apr-27 04:14N 29°53' W 089°54'0 0.0
2016-Apr-27 03:33N 29°53' W 089°54'6 6.3
2016-Apr-27 02:33N 29°49' W 090°00'  
2016-Apr-24 08:33N 25°49' W 079°34'1211.8
2016-Apr-24 07:33N 26°01' W 079°32'1211.7
2016-Apr-24 06:33N 26°13' W 079°30'  

Dump ship's entire track history